Strona główna
METAR-TAF:

METAR-TAF

Lotnisko :

Troyes, Francja

Szerokość geograficzna: 48-20N, Długość geograficzna: 004-01E, wysokość: 118 m

Aktualna obserwacja pogody

Raport powstał 36 minut temu, godzina 05:00 UTC
Wiatr 3 kt z kierunków zmiennych
Temperatura 12°C
Wilgotność 71%
Ciśnienie 1018 hPa
Widzialność 10 km lub więcej
Brak chmur poniżej 1500 m i brak chmur cumulonimbus

METAR: LFQB 010500Z AUTO VRB03KT CAVOK 12/07 Q1018

czas: 07:36 (05:36 UTC)


TAF: brakujący

Obserwacja i prognoza pogody dla ponad 4000 lotnisk (raport METAR i TAF).

Dostępne stacje oznaczono żółtymi i czerwonymi punktami na mapie.

Najedź kursorem aby zobaczyć nazwę stacji.

Kliknij aby zobaczyć obserwacje i prognozy pogody.

Aby zmienić mapę: kliknij na zielony przycisk z czarnym krzyżykiem, aby powiększyć; na zielony przycisk z myślnikiem, aby pomniejszyć; na zielone strzałki, aby przejść do map sąsiednich.


METAR-TAF: